Time;durP1;ratioP1;P1;durP2;ratioP2;P2;SDS_P1;SDS_P2;PMS_P1;PMS_P2;Temp;Humidity;BMP_temperature;BMP_pressure;BME280_temperature;BME280_humidity;BME280_pressure;Samples;Min_cycle;Max_cycle;Signal;HPM_P1;HPM_P2
2022/03/12 00:00:50;;;;;;;36.88;14.95;;;;;;;;;;4832361;29;20080;-70
2022/03/12 00:03:17;;;;;;;34.85;14.02;;;;;;;;;;4847464;29;20053;-70
2022/03/12 00:05:54;;;;;;;32.15;14.30;;;8.40;88.20;;;;;;4847537;29;20521;-70
2022/03/12 00:08:21;;;;;;;31.35;13.55;;;;;;;;;;4846969;29;20534;-70
2022/03/12 00:10:52;;;;;;;29.17;13.52;;;8.50;88.10;;;;;;4847790;29;20441;-70
2022/03/12 00:13:20;;;;;;;36.33;15.13;;;9.20;90.40;;;;;;4846870;29;20049;-70
2022/03/12 00:15:50;;;;;;;31.02;13.68;;;8.30;87.90;;;;;;4847421;29;20467;-70
2022/03/12 00:18:20;;;;;;;31.45;13.80;;;;;;;;;;4847124;29;20057;-70
2022/03/12 00:20:50;;;;;;;28.83;13.68;;;;;;;;;;4831845;29;20052;-70
2022/03/12 00:23:18;;;;;;;30.88;14.95;;;;;;;;;;4847045;29;20046;-70
2022/03/12 00:25:46;;;;;;;33.13;15.15;;;;;;;;;;4857035;29;20526;-70
2022/03/12 00:28:12;;;;;;;29.83;13.38;;;;;;;;;;4847240;29;20053;-70
2022/03/12 00:30:39;;;;;;;25.23;13.70;;;;;;;;;;4831242;29;20060;-70
2022/03/12 00:33:05;;;;;;;32.75;13.90;;;;;;;;;;4847074;29;20049;-70
2022/03/12 00:35:31;;;;;;;27.85;12.45;;;;;;;;;;4845648;29;20053;-70
2022/03/12 00:37:58;;;;;;;29.50;14.30;;;;;;;;;;4846810;29;20399;-70
2022/03/12 00:40:24;;;;;;;28.25;13.70;;;;;;;;;;4848328;29;20076;-70
2022/03/12 00:42:50;;;;;;;30.77;13.75;;;;;;;;;;4846546;29;20073;-70
2022/03/12 00:45:16;;;;;;;36.35;13.90;;;;;;;;;;4846806;29;20150;-70
2022/03/12 00:47:42;;;;;;;32.95;13.77;;;8.30;93.10;;;;;;4846837;29;20467;-70
2022/03/12 00:50:08;;;;;;;36.28;14.60;;;;;;;;;;4846396;29;20057;-70
2022/03/12 00:52:34;;;;;;;31.45;14.18;;;;;;;;;;4834600;29;20057;-70
2022/03/12 00:55:01;;;;;;;36.38;13.63;;;;;;;;;;4846571;29;20046;-70
2022/03/12 00:57:27;;;;;;;30.13;14.25;;;;;;;;;;4831411;29;20084;-70
2022/03/12 00:59:53;;;;;;;28.38;13.18;;;;;;;;;;4846597;29;20029;-70
2022/03/12 01:02:19;;;;;;;33.40;13.27;;;7.80;88.00;;;;;;4846681;29;20557;-70
2022/03/12 01:04:45;;;;;;;28.52;13.95;;;;;;;;;;4831164;29;20375;-70
2022/03/12 01:07:12;;;;;;;32.33;14.32;;;8.00;88.40;;;;;;4828078;29;20455;-70
2022/03/12 01:09:40;;;;;;;35.13;14.45;;;;;;;;;;4836837;29;20060;-70
2022/03/12 01:12:08;;;;;;;37.15;15.63;;;8.20;93.60;;;;;;4846361;29;20045;-70
2022/03/12 01:14:37;;;;;;;30.40;13.98;;;;;;;;;;4830702;29;20052;-70
2022/03/12 01:17:05;;;;;;;31.55;14.18;;;8.20;93.60;;;;;;4846311;29;20049;-70
2022/03/12 01:19:34;;;;;;;30.25;14.52;;;;;;;;;;4846081;29;20049;-70
2022/03/12 01:22:02;;;;;;;28.80;13.68;;;7.80;90.10;;;;;;4846369;29;20202;-69
2022/03/12 01:24:28;;;;;;;32.10;14.40;;;;;;;;;;4846053;29;20045;-70
2022/03/12 01:26:55;;;;;;;29.27;14.25;;;;;;;;;;4846073;29;20136;-69
2022/03/12 01:29:21;;;;;;;31.48;14.20;;;;;;;;;;4842947;29;20132;-70
2022/03/12 01:31:47;;;;;;;29.25;13.70;;;;;;;;;;4830662;29;20045;-70
2022/03/12 01:34:13;;;;;;;35.53;14.88;;;;;;;;;;4845754;29;20476;-70
2022/03/12 01:36:39;;;;;;;27.85;13.25;;;;;;;;;;4845612;29;20053;-70
2022/03/12 01:39:05;;;;;;;37.47;14.13;;;;;;;;;;4845669;29;20073;-69
2022/03/12 01:41:32;;;;;;;27.67;13.25;;;;;;;;;;4845816;29;20490;-73
2022/03/12 01:44:00;;;;;;;28.98;15.25;;;7.80;89.70;;;;;;4845493;29;20052;-73
2022/03/12 01:46:46;;;;;;;30.33;13.55;;;7.60;88.10;;;;;;4845662;29;20048;-70
2022/03/12 01:49:23;;;;;;;42.55;14.10;;;7.60;90.20;;;;;;4845609;29;20586;-70
2022/03/12 01:51:52;;;;;;;35.22;14.40;;;7.60;89.70;;;;;;4845639;29;20060;-70
2022/03/12 01:54:20;;;;;;;29.20;13.85;;;7.90;90.00;;;;;;4845386;29;20133;-70
2022/03/12 01:56:47;;;;;;;27.75;13.52;;;;;;;;;;4845753;29;20038;-70
2022/03/12 01:59:13;;;;;;;26.38;14.23;;;;;;;;;;4845448;29;20048;-70
2022/03/12 02:01:39;;;;;;;33.63;15.13;;;;;;;;;;4845885;29;20049;-70
2022/03/12 02:04:07;;;;;;;34.63;13.82;;;7.80;90.00;;;;;;4845673;29;20037;-70
2022/03/12 02:06:34;;;;;;;32.00;14.65;;;;;;;;;;4830106;29;20453;-70
2022/03/12 02:09:01;;;;;;;30.23;13.80;;;;;;;;;;4843202;29;20041;-69
2022/03/12 02:11:28;;;;;;;42.60;14.93;;;7.80;90.10;;;;;;4845326;29;20044;-70
2022/03/12 02:13:59;;;;;;;31.92;13.23;;;;;;;;;;4845420;29;20041;-70
2022/03/12 02:16:25;;;;;;;29.80;13.98;;;;;;;;;;4845084;29;20041;-69
2022/03/12 02:18:51;;;;;;;28.42;14.48;;;;;;;;;;4845347;29;20038;-69
2022/03/12 02:21:31;;;;;;;32.50;13.43;;;7.90;90.10;;;;;;4845042;29;20073;-69
2022/03/12 02:23:57;;;;;;;26.92;13.57;;;;;;;;;;4845397;29;20068;-69
2022/03/12 02:26:23;;;;;;;31.83;14.75;;;;;;;;;;4843535;29;20052;-69
2022/03/12 02:28:49;;;;;;;34.42;13.93;;;;;;;;;;4845382;29;20045;-69
2022/03/12 02:31:15;;;;;;;32.35;13.77;;;;;;;;;;4826225;29;20508;-69
2022/03/12 02:33:46;;;;;;;29.60;13.90;;;7.80;88.20;;;;;;4822445;29;20387;-69
2022/03/12 02:36:27;;;;;;;29.08;13.68;;;;;;;;;;4820301;29;20079;-69
2022/03/12 02:38:54;;;;;;;30.52;13.82;;;;;;;;;;4826842;29;20084;-69
2022/03/12 02:41:22;;;;;;;31.73;14.32;;;7.70;90.00;;;;;;4844238;29;20121;-69
2022/03/12 02:43:49;;;;;;;33.08;13.93;;;;;;;;;;4844634;29;20053;-69
2022/03/12 02:46:15;;;;;;;29.10;13.50;;;;;;;;;;4844485;29;20053;-69
2022/03/12 02:48:51;;;;;;;33.47;13.02;;;7.80;90.00;;;;;;4844543;29;20045;-69
2022/03/12 02:51:19;;;;;;;33.20;14.65;;;7.60;93.50;;;;;;4844156;29;20054;-69
2022/03/12 02:53:46;;;;;;;56.22;15.63;;;;;;;;;;4844537;29;20490;-69
2022/03/12 02:56:12;;;;;;;30.80;14.00;;;;;;;;;;4844380;29;20520;-70
2022/03/12 02:58:38;;;;;;;33.83;15.38;;;;;;;;;;4843993;29;20508;-69
2022/03/12 03:01:05;;;;;;;33.72;15.10;;;7.70;90.10;;;;;;4844485;29;20050;-70
2022/03/12 03:03:34;;;;;;;33.70;14.60;;;;;;;;;;4844505;29;20064;-69
2022/03/12 03:06:00;;;;;;;29.08;13.48;;;;;;;;;;4844589;29;20518;-70
2022/03/12 03:08:28;;;;;;;36.35;14.25;;;;;;;;;;4844526;29;20136;-69
2022/03/12 03:10:58;;;;;;;32.67;13.52;;;7.80;89.70;;;;;;4844398;29;20060;-69
2022/03/12 03:13:36;;;;;;;32.35;13.57;;;7.40;93.80;;;;;;4844460;29;20439;-69
2022/03/12 03:16:06;;;;;;;34.67;13.57;;;7.80;90.00;;;;;;4844168;29;20056;-69
2022/03/12 03:18:37;;;;;;;32.90;13.50;;;7.60;90.10;;;;;;4844312;29;20428;-69
2022/03/12 03:21:05;;;;;;;31.10;13.98;;;7.70;90.10;;;;;;4844032;29;20045;-69
2022/03/12 03:23:32;;;;;;;33.22;14.95;;;;;;;;;;4829827;29;20041;-69
2022/03/12 03:26:00;;;;;;;29.55;14.25;;;7.60;90.30;;;;;;4821822;29;20042;-68
2022/03/12 03:28:27;;;;;;;29.33;14.82;;;;;;;;;;4841179;29;20042;-70
2022/03/12 03:30:53;;;;;;;34.63;14.93;;;;;;;;;;4838305;29;20045;-70
2022/03/12 03:33:20;;;;;;;34.95;14.80;;;;;;;;;;4843036;29;20085;-69
2022/03/12 03:35:46;;;;;;;35.30;15.90;;;;;;;;;;4842482;29;20053;-69
2022/03/12 03:38:12;;;;;;;30.20;15.55;;;;;;;;;;4842422;29;20133;-70
2022/03/12 03:40:39;;;;;;;31.55;15.35;;;;;;;;;;4843859;29;20069;-69
2022/03/12 03:43:14;;;;;;;37.63;15.32;;;8.70;94.80;;;;;;4841189;29;20418;-69
2022/03/12 03:45:42;;;;;;;43.45;14.25;;;7.80;90.80;;;;;;4841784;29;20048;-69
2022/03/12 03:48:14;;;;;;;36.42;15.98;;;7.80;94.80;;;;;;4844562;29;20116;-69
2022/03/12 03:50:41;;;;;;;32.42;15.32;;;7.90;91.10;;;;;;4845211;29;20091;-70
2022/03/12 03:53:07;;;;;;;31.08;15.35;;;;;;;;;;4862286;29;20052;-69
2022/03/12 03:55:34;;;;;;;32.92;14.68;;;8.00;91.10;;;;;;4862458;29;20068;-69
2022/03/12 03:58:01;;;;;;;34.13;15.57;;;7.90;90.60;;;;;;4862610;29;20067;-70
2022/03/12 04:00:28;;;;;;;37.55;15.40;;;7.80;91.20;;;;;;4877656;29;20044;-69
2022/03/12 04:03:04;;;;;;;33.92;14.82;;;7.80;91.40;;;;;;4861722;29;20509;-69
2022/03/12 04:05:32;;;;;;;45.72;16.10;;;7.60;91.40;;;;;;4862558;29;20068;-69
2022/03/12 04:08:00;;;;;;;33.60;14.98;;;;;;;;;;4859439;29;20099;-69
2022/03/12 04:10:26;;;;;;;37.20;16.63;;;;;;;;;;4829957;29;20390;-69
2022/03/12 04:12:52;;;;;;;32.03;15.30;;;;;;;;;;4861374;29;20073;-69
2022/03/12 04:15:18;;;;;;;31.15;15.35;;;;;;;;;;4865630;29;20109;-69
2022/03/12 04:17:45;;;;;;;34.28;16.83;;;;;;;;;;4865894;29;20045;-70
2022/03/12 04:20:14;;;;;;;33.30;15.95;;;8.10;96.70;;;;;;4865360;29;20041;-69
2022/03/12 04:22:40;;;;;;;35.50;16.23;;;;;;;;;;4865078;29;20056;-69
2022/03/12 04:25:14;;;;;;;34.55;15.20;;;7.40;93.50;;;;;;4862420;29;20050;-69
2022/03/12 04:27:44;;;;;;;36.80;16.83;;;;;;;;;;4857268;29;20517;-70
2022/03/12 04:30:16;;;;;;;39.03;16.33;;;7.50;94.00;;;;;;4865507;29;20409;-70
2022/03/12 04:32:43;;;;;;;35.10;15.75;;;;;;;;;;4865130;29;20132;-70
2022/03/12 04:35:09;;;;;;;36.35;17.23;;;;;;;;;;4861663;29;20063;-70
2022/03/12 04:37:36;;;;;;;41.65;16.95;;;7.40;94.20;;;;;;4855748;29;20498;-73
2022/03/12 04:40:12;;;;;;;40.70;18.13;;;7.30;93.90;;;;;;4865390;29;20052;-73
2022/03/12 04:42:43;;;;;;;37.90;16.65;;;7.40;94.50;;;;;;4865530;29;20465;-73
2022/03/12 04:45:11;;;;;;;35.70;17.20;;;7.40;95.10;;;;;;4865470;29;20049;-73
2022/03/12 04:47:41;;;;;;;38.70;16.95;;;7.40;95.20;;;;;;4865185;29;20051;-73
2022/03/12 04:50:08;;;;;;;37.58;16.95;;;;;;;;;;4862233;29;20045;-74
2022/03/12 04:52:35;;;;;;;36.60;17.33;;;;;;;;;;4853261;29;20068;-74
2022/03/12 04:55:07;;;;;;;41.10;17.25;;;7.10;95.40;;;;;;4849612;29;20052;-74
2022/03/12 04:57:34;;;;;;;36.10;17.98;;;7.50;99.20;;;;;;4846345;29;20034;-74
2022/03/12 05:00:03;;;;;;;41.20;18.10;;;;;;;;;;4846397;29;20088;-74
2022/03/12 05:02:29;;;;;;;40.92;19.17;;;;;;;;;;4855870;29;20458;-74
2022/03/12 05:04:55;;;;;;;42.33;17.83;;;;;;;;;;4864898;29;20052;-74
2022/03/12 05:07:26;;;;;;;41.40;17.58;;;;;;;;;;4861392;29;20110;-74
2022/03/12 05:09:53;;;;;;;39.55;17.50;;;;;;;;;;4846714;29;20179;-74
2022/03/12 05:12:23;;;;;;;40.13;17.88;;;;;;;;;;4849057;29;20440;-74
2022/03/12 05:14:54;;;;;;;43.92;18.88;;;6.90;95.80;;;;;;4849030;29;20490;-73
2022/03/12 05:17:24;;;;;;;39.10;17.75;;;;;;;;;;4879978;29;20041;-73
2022/03/12 05:19:50;;;;;;;41.50;18.92;;;;;;;;;;4865007;29;20123;-73
2022/03/12 05:22:16;;;;;;;41.33;18.35;;;;;;;;;;4861563;29;20056;-73
2022/03/12 05:24:42;;;;;;;43.13;17.15;;;;;;;;;;4881410;29;20048;-73
2022/03/12 05:27:17;;;;;;;38.08;17.70;;;;;;;;;;4864687;29;20052;-73
2022/03/12 05:29:46;;;;;;;39.03;18.73;;;;;;;;;;4846236;29;20053;-73
2022/03/12 05:32:12;;;;;;;44.13;18.73;;;;;;;;;;4849377;29;20045;-74
2022/03/12 05:34:39;;;;;;;38.03;18.08;;;;;;;;;;4848764;29;20129;-73
2022/03/12 05:37:08;;;;;;;39.30;18.13;;;7.70;99.90;;;;;;4864403;29;20040;-73
2022/03/12 05:39:34;;;;;;;44.40;18.42;;;;;;;;;;4861067;29;20041;-73
2022/03/12 05:42:04;;;;;;;36.30;16.17;;;;;;;;;;4831148;29;20075;-73
2022/03/12 05:44:30;;;;;;;41.60;18.25;;;;;;;;;;4842481;29;20053;-73
2022/03/12 05:46:56;;;;;;;38.38;18.45;;;;;;;;;;4845759;29;20053;-73
2022/03/12 05:49:22;;;;;;;42.90;17.83;;;;;;;;;;4843574;29;20091;-73
2022/03/12 05:51:48;;;;;;;40.20;18.50;;;;;;;;;;4864099;29;20120;-73
2022/03/12 05:54:14;;;;;;;41.72;18.13;;;;;;;;;;4852640;29;20062;-74
2022/03/12 05:56:40;;;;;;;44.30;18.17;;;;;;;;;;4861203;29;20068;-73
2022/03/12 05:59:07;;;;;;;42.10;18.60;;;6.90;96.70;;;;;;4863834;29;20045;-73
2022/03/12 06:01:34;;;;;;;41.25;18.10;;;;;;;;;;4863896;29;20154;-73
2022/03/12 06:04:00;;;;;;;34.20;16.27;;;;;;;;;;4860743;29;20411;-73
2022/03/12 06:06:29;;;;;;;38.33;17.95;;;;;;;;;;4830538;29;20087;-73
2022/03/12 06:08:57;;;;;;;40.38;16.70;;;;;;;;;;4852554;29;20436;-74
2022/03/12 06:11:25;;;;;;;33.88;16.48;;;;;;;;;;4863772;29;20056;-73
2022/03/12 06:13:54;;;;;;;41.08;18.10;;;6.80;96.40;;;;;;4863575;29;20048;-73
2022/03/12 06:16:21;;;;;;;36.65;16.85;;;;;;;;;;4863777;29;20109;-74
2022/03/12 06:18:47;;;;;;;43.72;17.63;;;;;;;;;;4863496;29;20399;-73
2022/03/12 06:21:13;;;;;;;45.35;17.98;;;;;;;;;;4863863;29;20064;-73
2022/03/12 06:23:39;;;;;;;41.70;16.58;;;;;;;;;;4863349;29;20033;-73
2022/03/12 06:26:15;;;;;;;44.58;16.13;;;;;;;;;;4863826;29;20131;-73
2022/03/12 06:28:41;;;;;;;40.30;18.73;;;7.10;99.90;;;;;;4863450;29;20055;-73
2022/03/12 06:31:08;;;;;;;43.55;17.35;;;6.50;96.60;;;;;;4863541;29;20132;-73
2022/03/12 06:33:34;;;;;;;37.33;17.92;;;6.50;96.40;;;;;;4847047;29;20052;-73
2022/03/12 06:36:04;;;;;;;46.72;20.45;;;;;;;;;;4861026;29;20117;-70
2022/03/12 06:38:30;;;;;;;38.67;17.02;;;6.70;96.80;;;;;;4863184;29;20041;-70
2022/03/12 06:40:58;;;;;;;36.47;16.95;;;;;;;;;;4878819;29;20105;-70
2022/03/12 06:43:28;;;;;;;37.67;17.42;;;6.60;96.40;;;;;;4863355;29;20044;-70
2022/03/12 06:45:59;;;;;;;42.45;17.50;;;6.50;97.00;;;;;;4862846;29;20489;-71
2022/03/12 06:48:25;;;;;;;44.30;18.17;;;;;;;;;;4862973;29;20049;-71
2022/03/12 06:50:52;;;;;;;35.88;17.35;;;;;;;;;;4862954;29;20057;-70
2022/03/12 06:53:18;;;;;;;36.05;16.63;;;;;;;;;;4859891;29;20060;-71
2022/03/12 06:55:45;;;;;;;38.88;17.27;;;;;;;;;;4860523;29;20048;-69
2022/03/12 06:58:11;;;;;;;36.47;17.58;;;6.50;96.60;;;;;;4854454;29;20044;-69
2022/03/12 07:00:37;;;;;;;39.53;17.30;;;;;;;;;;4853131;29;20041;-69
2022/03/12 07:03:03;;;;;;;39.75;17.98;;;;;;;;;;4853987;29;20109;-69
2022/03/12 07:05:29;;;;;;;43.80;18.05;;;;;;;;;;4847543;29;20052;-68
2022/03/12 07:07:56;;;;;;;38.17;17.58;;;6.70;97.00;;;;;;4863271;29;20049;-69
2022/03/12 07:10:23;;;;;;;39.42;17.60;;;6.70;97.10;;;;;;4862691;29;20185;-70
2022/03/12 07:12:50;;;;;;;42.42;17.55;;;6.70;97.10;;;;;;4862751;29;20049;-70
2022/03/12 07:15:18;;;;;;;42.97;17.38;;;6.70;97.00;;;;;;4862131;29;20053;-70
2022/03/12 07:17:44;;;;;;;42.72;17.90;;;;;;;;;;4863323;29;20056;-70
2022/03/12 07:20:12;;;;;;;37.72;17.40;;;6.80;97.10;;;;;;4862994;29;20064;-70
2022/03/12 07:22:39;;;;;;;48.00;18.70;;;;;;;;;;4862925;29;20069;-70
2022/03/12 07:25:05;;;;;;;37.67;16.83;;;;;;;;;;4854873;29;20053;-70
2022/03/12 07:27:31;;;;;;;41.00;17.98;;;;;;;;;;4862771;29;20136;-69
2022/03/12 07:30:00;;;;;;;39.10;17.33;;;;;;;;;;4850889;29;20051;-70
2022/03/12 07:32:28;;;;;;;40.85;17.23;;;;;;;;;;4846180;29;20505;-71
2022/03/12 07:34:55;;;;;;;39.03;16.95;;;7.20;96.20;;;;;;4834285;29;20037;-70
2022/03/12 07:37:21;;;;;;;40.63;18.75;;;;;;;;;;4847219;29;20045;-70
2022/03/12 07:39:47;;;;;;;46.42;18.63;;;;;;;;;;4858877;29;20559;-70
2022/03/12 07:42:14;;;;;;;40.65;18.05;;;;;;;;;;4837055;29;20049;-70
2022/03/12 07:44:40;;;;;;;45.88;18.55;;;;;;;;;;4859011;29;20045;-70
2022/03/12 07:47:07;;;;;;;35.85;17.80;;;;;;;;;;4866547;29;20052;-70
2022/03/12 07:49:34;;;;;;;40.38;17.70;;;;;;;;;;4850352;29;20045;-70
2022/03/12 07:52:00;;;;;;;40.35;17.88;;;;;;;;;;4862478;29;20067;-70
2022/03/12 07:54:27;;;;;;;70.03;20.45;;;;;;;;;;4843098;29;20082;-70
2022/03/12 07:56:53;;;;;;;39.80;19.08;;;;;;;;;;4833272;29;20473;-70
2022/03/12 07:59:20;;;;;;;37.50;17.63;;;;;;;;;;4851726;29;20041;-69
2022/03/12 08:01:46;;;;;;;37.72;19.08;;;;;;;;;;4864036;29;20455;-70
2022/03/12 08:04:12;;;;;;;39.22;17.63;;;;;;;;;;4865996;29;20044;-70
2022/03/12 08:06:38;;;;;;;42.63;17.42;;;;;;;;;;4865833;29;20041;-70
2022/03/12 08:09:04;;;;;;;38.78;16.50;;;;;;;;;;4865728;29;20072;-70
2022/03/12 08:11:32;;;;;;;42.35;17.90;;;;;;;;;;4865552;29;20041;-70
2022/03/12 08:14:04;;;;;;;39.13;17.15;;;8.10;96.70;;;;;;4865803;29;20048;-72
2022/03/12 08:16:32;;;;;;;37.80;18.25;;;;;;;;;;4862303;29;20053;-70
2022/03/12 08:18:58;;;;;;;37.85;17.70;;;;;;;;;;4847273;29;20050;-70
2022/03/12 08:21:25;;;;;;;41.13;18.10;;;;;;;;;;4847702;29;20045;-70
2022/03/12 08:23:51;;;;;;;39.97;17.95;;;;;;;;;;4865196;29;20063;-70
2022/03/12 08:26:18;;;;;;;40.72;18.02;;;;;;;;;;4865828;29;20520;-70
2022/03/12 08:28:44;;;;;;;36.10;17.98;;;;;;;;;;4865950;29;20048;-71
2022/03/12 08:31:11;;;;;;;41.50;17.90;;;;;;;;;;4856474;29;20475;-71
2022/03/12 08:33:37;;;;;;;36.35;16.48;;;;;;;;;;4860399;29;20045;-71
2022/03/12 08:36:05;;;;;;;41.78;17.08;;;8.50;99.90;;;;;;4864597;29;20084;-70
2022/03/12 08:38:35;;;;;;;41.85;17.17;;;;;;;;;;4864273;29;20041;-71
2022/03/12 08:41:03;;;;;;;36.05;17.23;;;8.60;96.90;;;;;;4863919;29;20052;-71
2022/03/12 08:43:29;;;;;;;33.70;16.20;;;8.90;96.60;;;;;;4848871;29;20044;-70
2022/03/12 08:45:55;;;;;;;38.53;18.35;;;;;;;;;;4864065;29;20166;-71
2022/03/12 08:48:21;;;;;;;37.72;16.40;;;;;;;;;;4864352;29;20056;-71
2022/03/12 08:50:47;;;;;;;34.65;16.33;;;8.20;97.50;;;;;;4863690;29;20045;-71
2022/03/12 08:53:15;;;;;;;31.95;16.35;;;;;;;;;;4848901;29;20181;-70
2022/03/12 08:55:41;;;;;;;35.08;15.43;;;;;;;;;;4863539;29;20537;-70
2022/03/12 08:58:08;;;;;;;35.55;16.15;;;;;;;;;;4861556;29;20057;-70
2022/03/12 09:00:34;;;;;;;31.77;16.17;;;;;;;;;;4859002;29;20040;-69
2022/03/12 09:03:00;;;;;;;32.40;15.68;;;;;;;;;;4852793;29;20048;-69
2022/03/12 09:05:26;;;;;;;36.47;17.40;;;;;;;;;;4845919;29;20045;-69
2022/03/12 09:07:52;;;;;;;32.22;16.73;;;;;;;;;;4845783;29;20053;-70
2022/03/12 09:10:20;;;;;;;34.05;16.63;;;9.70;96.90;;;;;;4846131;29;20057;-69
2022/03/12 09:12:46;;;;;;;36.78;16.88;;;;;;;;;;4831165;29;20049;-69
2022/03/12 09:15:13;;;;;;;37.53;17.35;;;9.60;96.60;;;;;;4846539;29;20094;-69
2022/03/12 09:17:39;;;;;;;33.22;16.65;;;;;;;;;;4846310;29;20502;-69
2022/03/12 09:20:06;;;;;;;33.83;17.20;;;9.60;96.90;;;;;;4846677;29;20041;-69
2022/03/12 09:22:32;;;;;;;35.58;17.80;;;;;;;;;;4830968;29;20041;-69
2022/03/12 09:25:02;;;;;;;38.13;17.35;;;;;;;;;;4846418;29;20058;-69
2022/03/12 09:27:28;;;;;;;31.30;15.80;;;;;;;;;;4846127;29;20060;-69
2022/03/12 09:29:54;;;;;;;38.97;17.85;;;;;;;;;;4846182;29;20064;-69
2022/03/12 09:32:20;;;;;;;32.92;16.23;;;;;;;;;;4845932;29;20060;-69
2022/03/12 09:34:47;;;;;;;30.33;16.45;;;;;;;;;;4843687;29;20045;-69
2022/03/12 09:37:13;;;;;;;31.02;16.02;;;;;;;;;;4845822;29;20045;-70
2022/03/12 09:39:39;;;;;;;31.85;15.38;;;;;;;;;;4846002;29;20052;-70
2022/03/12 09:42:05;;;;;;;31.13;15.88;;;10.70;99.90;;;;;;4845968;29;20041;-70
2022/03/12 09:44:31;;;;;;;29.88;14.60;;;;;;;;;;4859125;29;20051;-70
2022/03/12 09:46:57;;;;;;;24.90;14.38;;;;;;;;;;4863829;29;20040;-69
2022/03/12 09:49:23;;;;;;;26.67;14.02;;;;;;;;;;4859216;29;20044;-69
2022/03/12 09:51:49;;;;;;;29.67;14.48;;;11.00;99.90;;;;;;4852434;29;20057;-70
2022/03/12 09:54:18;;;;;;;25.15;14.45;;;;;;;;;;4824476;29;20133;-70
2022/03/12 09:56:44;;;;;;;27.30;14.80;;;;;;;;;;4827449;29;20041;-70
2022/03/12 09:59:10;;;;;;;25.08;13.63;;;10.70;96.70;;;;;;4839906;29;20052;-70
2022/03/12 10:01:36;;;;;;;26.30;13.93;;;;;;;;;;4845165;29;20037;-70
2022/03/12 10:04:03;;;;;;;28.42;14.60;;;;;;;;;;4845346;29;20096;-70
2022/03/12 10:06:31;;;;;;;25.10;13.70;;;;;;;;;;4845765;29;20132;-71
2022/03/12 10:08:57;;;;;;;29.17;13.95;;;;;;;;;;4845420;29;20060;-70
2022/03/12 10:11:23;;;;;;;24.20;13.30;;;;;;;;;;4845478;29;20050;-70
2022/03/12 10:13:49;;;;;;;25.77;14.15;;;;;;;;;;4845388;29;20053;-70
2022/03/12 10:16:18;;;;;;;27.98;14.43;;;;;;;;;;4845332;29;20042;-70
2022/03/12 10:18:45;;;;;;;25.23;12.50;;;;;;;;;;4844964;29;20559;-75
2022/03/12 10:21:11;;;;;;;23.17;12.90;;;;;;;;;;4844506;29;20060;-69
2022/03/12 10:23:37;;;;;;;19.60;11.75;;;;;;;;;;4833583;29;20050;-70
2022/03/12 10:26:03;;;;;;;23.08;12.88;;;;;;;;;;4811739;29;20137;-74
2022/03/12 10:28:34;;;;;;;21.45;11.90;;;;;;;;;;4846974;29;20045;-70
2022/03/12 10:31:05;;;;;;;22.77;12.38;;;10.70;99.90;;;;;;4844339;29;20395;-69
2022/03/12 10:33:32;;;;;;;25.20;12.10;;;11.70;97.10;;;;;;4844874;29;20064;-69
2022/03/12 10:36:15;;;;;;;19.35;11.00;;;11.90;96.60;;;;;;4829546;29;20057;-69
2022/03/12 10:38:47;;;;;;;20.30;11.23;;;11.70;97.00;;;;;;4829872;29;20088;-69
2022/03/12 10:41:14;;;;;;;15.75;8.80;;;11.90;96.80;;;;;;4844876;29;20060;-69
2022/03/12 10:43:49;;;;;;;17.15;10.00;;;12.00;96.20;;;;;;4859963;29;20053;-69
2022/03/12 10:46:21;;;;;;;17.63;9.50;;;12.50;99.90;;;;;;4841734;29;20065;-71
2022/03/12 10:48:53;;;;;;;18.03;9.43;;;11.80;97.00;;;;;;4844231;29;20048;-72
2022/03/12 10:51:21;;;;;;;22.33;10.43;;;;;;;;;;4827672;29;20098;-75
2022/03/12 10:53:48;;;;;;;19.45;8.93;;;;;;;;;;4857748;29;20050;-68
2022/03/12 10:56:14;;;;;;;17.25;9.50;;;;;;;;;;4856000;29;20509;-69
2022/03/12 10:58:40;;;;;;;21.17;9.00;;;;;;;;;;4863125;29;20048;-69
2022/03/12 11:01:07;;;;;;;14.93;8.85;;;;;;;;;;4848020;29;20444;-69
2022/03/12 11:03:35;;;;;;;18.15;8.18;;;12.40;96.50;;;;;;4843415;29;20037;-69
2022/03/12 11:06:01;;;;;;;18.70;8.70;;;;;;;;;;4862165;29;20045;-69
2022/03/12 11:08:32;;;;;;;17.98;9.43;;;12.70;99.70;;;;;;4861780;29;20041;-69
2022/03/12 11:10:59;;;;;;;20.05;9.05;;;12.50;96.50;;;;;;4846606;29;20040;-73
2022/03/12 11:13:35;;;;;;;17.77;7.88;;;12.50;96.10;;;;;;4862140;29;20045;-73
2022/03/12 11:16:32;;;;;;;16.90;9.27;;;12.60;95.70;;;;;;4861395;29;20053;-73
2022/03/12 11:19:12;;;;;;;16.52;7.82;;;13.40;99.40;;;;;;4861240;29;20072;-73
2022/03/12 11:21:41;;;;;;;19.60;7.65;;;12.80;96.20;;;;;;4862498;29;20048;-74
2022/03/12 11:24:22;;;;;;;17.10;7.60;;;12.90;95.30;;;;;;4862775;29;20045;-73
2022/03/12 11:26:50;;;;;;;12.90;6.35;;;12.80;96.00;;;;;;4876497;29;20037;-73
2022/03/12 11:29:18;;;;;;;16.63;6.68;;;12.90;95.80;;;;;;4862379;29;20037;-73
2022/03/12 11:31:49;;;;;;;19.70;6.22;;;12.70;95.60;;;;;;4877293;29;20397;-73
2022/03/12 11:34:30;;;;;;;12.20;5.60;;;12.60;94.60;;;;;;4860921;29;20124;-73
2022/03/12 11:36:56;;;;;;;17.05;5.88;;;;;;;;;;4860705;29;20136;-73
2022/03/12 11:39:48;;;;;;;14.55;5.57;;;12.90;95.70;;;;;;4861486;29;20136;-73
2022/03/12 11:42:20;;;;;;;12.80;5.70;;;13.00;95.60;;;;;;4844618;29;20053;-73
2022/03/12 11:44:49;;;;;;;14.88;6.05;;;12.90;98.60;;;;;;4869782;29;20046;-73
2022/03/12 11:47:17;;;;;;;17.63;6.90;;;12.60;95.10;;;;;;4846373;29;20041;-73
2022/03/12 11:49:43;;;;;;;10.27;5.53;;;12.70;95.10;;;;;;4876918;29;20052;-73
2022/03/12 11:52:10;;;;;;;13.05;5.93;;;12.90;94.70;;;;;;4859392;29;20057;-73
2022/03/12 11:54:38;;;;;;;15.02;6.10;;;12.80;94.90;;;;;;4861364;29;20450;-73
2022/03/12 11:57:06;;;;;;;13.15;5.30;;;;;;;;;;4860195;29;20053;-73
2022/03/12 11:59:32;;;;;;;13.45;5.43;;;;;;;;;;4861725;29;20557;-73
2022/03/12 12:02:15;;;;;;;11.20;6.25;;;13.00;98.40;;;;;;4861513;29;20498;-73
2022/03/12 12:04:41;;;;;;;14.10;5.95;;;;;;;;;;4859507;29;20124;-73
2022/03/12 12:07:06;;;;;;;15.35;6.18;;;12.30;98.10;;;;;;4861639;29;20037;-73
2022/03/12 12:09:33;;;;;;;11.90;6.43;;;;;;;;;;4861149;29;20504;-73
2022/03/12 12:12:00;;;;;;;14.10;6.07;;;;;;;;;;4861931;29;20044;-73
2022/03/12 12:14:26;;;;;;;14.10;6.53;;;;;;;;;;4859131;29;20049;-69
2022/03/12 12:16:57;;;;;;;11.77;6.22;;;13.30;94.80;;;;;;4878181;29;20051;-76
2022/03/12 12:19:23;;;;;;;13.18;6.45;;;;;;;;;;4848853;29;20049;-74
2022/03/12 12:21:49;;;;;;;13.57;6.90;;;14.00;98.20;;;;;;4860592;29;20041;-73
2022/03/12 12:24:26;;;;;;;17.58;7.30;;;13.60;95.20;;;;;;4842497;29;20045;-73
2022/03/12 12:26:57;;;;;;;11.88;6.50;;;13.60;98.10;;;;;;4858462;29;20120;-73
2022/03/12 12:29:48;;;;;;;16.45;7.22;;;13.80;94.90;;;;;;4860780;29;20100;-73
2022/03/12 12:32:17;;;;;;;15.93;6.57;;;14.00;94.30;;;;;;4850033;29;20557;-73
2022/03/12 12:35:15;;;;;;;13.38;7.15;;;14.20;97.70;;;;;;4844015;29;20053;-73
2022/03/12 12:37:44;;;;;;;16.95;7.32;;;;;;;;;;4864213;29;20128;-73
2022/03/12 12:40:36;;;;;;;13.15;7.50;;;14.40;93.10;;;;;;4864705;29;20065;-73
2022/03/12 12:43:09;;;;;;;9.45;6.72;;;14.40;94.10;;;;;;4865145;29;20052;-73
2022/03/12 12:45:46;;;;;;;14.93;6.18;;;14.50;93.80;;;;;;4865188;29;20115;-73
2022/03/12 12:48:18;;;;;;;20.88;6.40;;;14.60;96.80;;;;;;4865393;29;20041;-73
2022/03/12 12:51:07;;;;;;;15.48;6.05;;;14.80;92.60;;;;;;4865668;29;20115;-73
2022/03/12 12:54:02;;;;;;;13.00;5.95;;;14.90;93.30;;;;;;4865602;29;20064;-73
2022/03/12 12:56:33;;;;;;;12.35;5.70;;;15.00;96.30;;;;;;4863008;29;20116;-73
2022/03/12 12:59:01;;;;;;;10.80;6.03;;;;;;;;;;4865180;29;20044;-73
2022/03/12 13:01:39;;;;;;;12.85;6.38;;;15.00;96.00;;;;;;4865196;29;20049;-74
2022/03/12 13:04:11;;;;;;;14.52;6.22;;;14.90;92.60;;;;;;4865316;29;20375;-73
2022/03/12 13:06:40;;;;;;;13.05;6.40;;;;;;;;;;4864973;29;20052;-73
2022/03/12 13:09:33;;;;;;;11.82;6.40;;;14.70;92.60;;;;;;4865219;29;20398;-73
2022/03/12 13:12:04;;;;;;;12.48;5.50;;;15.50;95.90;;;;;;4821506;29;20108;-73
2022/03/12 13:14:50;;;;;;;11.05;5.70;;;13.70;95.70;;;;;;4881617;29;20178;-74
2022/03/12 13:17:30;;;;;;;12.60;6.45;;;14.60;96.00;;;;;;4864701;29;20096;-73
2022/03/12 13:19:56;;;;;;;14.23;6.47;;;;;;;;;;4864868;29;20041;-73
2022/03/12 13:22:22;;;;;;;11.07;6.22;;;;;;;;;;4864829;29;20052;-73
2022/03/12 13:24:48;;;;;;;11.93;6.60;;;;;;;;;;4864696;29;20104;-73
2022/03/12 13:27:33;;;;;;;13.98;5.85;;;15.00;92.70;;;;;;4864693;29;20045;-73
2022/03/12 13:30:18;;;;;;;15.82;5.97;;;14.70;95.60;;;;;;4864689;29;20052;-73
2022/03/12 13:32:50;;;;;;;12.68;6.07;;;14.70;92.60;;;;;;4849687;29;20462;-73
2022/03/12 13:35:21;;;;;;;11.27;5.70;;;14.80;91.50;;;;;;4864345;29;20120;-73
2022/03/12 13:37:48;;;;;;;11.52;5.18;;;;;;;;;;4864716;29;20364;-74
2022/03/12 13:40:16;;;;;;;8.95;5.75;;;15.10;95.60;;;;;;4864313;29;20490;-74
2022/03/12 13:42:53;;;;;;;13.77;6.38;;;15.00;92.50;;;;;;4848472;29;20044;-73